»·PEaware :: N359W KPRB-KSJC

N359W :: KPRB-KSJC

FLIGHT INFORMATION

Flight Status: Arrived
Operator: Privately registered:
United States
More flights under this callsign
Pilot: Anonymous 18613 (18613)
Aircraft: BEECH AIRCRAFT BARON
(BE58)
More flights by this aircraft type
Origin: KPRB Paso Robles Mun
United States
Destination: KSJC Mineta San Jose Intl
United States
More flights between these airports :: More routes between these airports
Route: +PRB V25 SNS SJC
File this flight plan on PilotEdge
Remarks:
Altitude:
(Current/Filed)
8,000ft
Speed:
(Current/Filed)
190kts
Departed: 08-Feb-19 02:00 PM
Arrived: 08-Feb-19 02:51 PM
Distance/Time
Traveled:
119nm/0:50
Distance/Time
To Go:
Arrived

Flight Plot

Page will automatically refresh every two minutes.

Flight plan parsing failed; only flown route is shown


Map Options




Map Legend


Flown Route
Filed Route
Departure Airport
Arrival Airport
Navaid (VOR, NDB)
Fix

Horizontal Profiles

Position Reports

Time Latitude Longitude Heading Altitude Ground
Speed
08-Feb-19 13:36 35.668081 -120.637387 359 808ft 0kts
08-Feb-19 13:37 35.668081 -120.637387 359 808ft 0kts
08-Feb-19 13:38 35.668081 -120.637387 359 808ft 0kts
08-Feb-19 13:39 35.668081 -120.637387 359 808ft 0kts
08-Feb-19 13:40 35.668081 -120.637387 359 808ft 0kts
08-Feb-19 13:41 35.668081 -120.637387 359 808ft 0kts
08-Feb-19 13:42 35.668081 -120.637387 359 808ft 0kts
08-Feb-19 13:43 35.668081 -120.637387 359 808ft 0kts
08-Feb-19 13:44 35.668081 -120.637387 359 808ft 0kts
08-Feb-19 13:45 35.668081 -120.637387 359 808ft 0kts
08-Feb-19 13:46 35.668081 -120.637387 359 808ft 0kts
08-Feb-19 13:47 35.668081 -120.637387 359 808ft 0kts
08-Feb-19 13:48 35.668081 -120.637387 359 808ft 0kts
08-Feb-19 13:49 35.668081 -120.637387 359 808ft 0kts
08-Feb-19 13:50 35.668081 -120.637387 359 808ft 0kts
08-Feb-19 13:51 35.668081 -120.637387 359 808ft 0kts
08-Feb-19 13:52 35.668081 -120.637387 359 808ft 0kts
08-Feb-19 13:53 35.668081 -120.637387 359 808ft 0kts
08-Feb-19 13:54 35.668081 -120.637387 359 808ft 0kts
08-Feb-19 13:55 35.668081 -120.637387 359 808ft 0kts
08-Feb-19 13:56 35.668081 -120.637387 359 808ft 0kts
08-Feb-19 13:57 35.668156 -120.637381 6 808ft 6kts
08-Feb-19 13:58 35.666222 -120.635611 77 812ft 10kts
08-Feb-19 13:59 35.689044 -120.618249 37 1731ft 125kts
08-Feb-19 14:00 35.706039 -120.582592 141 2839ft 118kts
08-Feb-19 14:01 35.682053 -120.587053 243 4458ft 97kts
08-Feb-19 14:02 35.676152 -120.620865 270 5757ft 109kts
08-Feb-19 14:03 35.695721 -120.650691 313 7059ft 114kts
08-Feb-19 14:04 35.720836 -120.674501 312 8015ft 133kts
08-Feb-19 14:05 35.755887 -120.708265 314 7989ft 174kts
08-Feb-19 14:06 35.794902 -120.745978 314 7985ft 180kts
08-Feb-19 14:07 35.835934 -120.781833 314 7986ft 180kts
08-Feb-19 14:08 35.875247 -120.820829 314 7985ft 180kts
08-Feb-19 14:09 35.914835 -120.859761 314 7985ft 180kts
08-Feb-19 14:10 35.954162 -120.898342 315 7985ft 180kts
08-Feb-19 14:11 35.993639 -120.937116 315 7985ft 181kts
08-Feb-19 14:12 36.032972 -120.975783 314 7985ft 180kts
08-Feb-19 14:13 36.072393 -121.014577 315 7981ft 180kts
08-Feb-19 14:14 36.111568 -121.053105 315 7973ft 180kts
08-Feb-19 14:15 36.150272 -121.091050 315 7964ft 179kts
08-Feb-19 14:16 36.189157 -121.129399 315 7957ft 178kts
08-Feb-19 14:17 36.227923 -121.167778 315 7951ft 177kts
08-Feb-19 14:18 36.267042 -121.206595 315 7782ft 182kts
08-Feb-19 14:19 36.306229 -121.245443 315 7771ft 177kts
08-Feb-19 14:20 36.344212 -121.283224 315 7771ft 176kts
08-Feb-19 14:21 36.382828 -121.321684 315 7771ft 176kts
08-Feb-19 14:22 36.421337 -121.360106 315 7771ft 176kts
08-Feb-19 14:23 36.459930 -121.398619 315 7771ft 176kts
08-Feb-19 14:24 36.498634 -121.437267 315 7771ft 176kts
08-Feb-19 14:25 36.537183 -121.475808 315 7770ft 177kts
08-Feb-19 14:26 36.576060 -121.514322 322 7768ft 179kts
08-Feb-19 14:27 36.620368 -121.544272 326 7770ft 180kts
08-Feb-19 14:28 36.664968 -121.573442 326 7770ft 180kts
08-Feb-19 14:29 36.709030 -121.602214 326 7769ft 180kts
08-Feb-19 14:31 36.753632 -121.631377 326 7769ft 180kts
08-Feb-19 14:32 36.797670 -121.660206 325 7774ft 180kts
08-Feb-19 14:33 36.842315 -121.689471 325 7772ft 181kts
08-Feb-19 14:34 36.887396 -121.719036 325 7770ft 182kts
08-Feb-19 14:35 36.931800 -121.748218 325 7765ft 182kts
08-Feb-19 14:36 36.980197 -121.780043 325 6823ft 192kts
08-Feb-19 14:37 37.027214 -121.811045 326 5856ft 190kts
08-Feb-19 14:38 37.070701 -121.839807 325 5795ft 173kts
08-Feb-19 14:39 37.115493 -121.869394 326 5793ft 183kts
08-Feb-19 14:40 37.161067 -121.899533 326 5781ft 184kts
08-Feb-19 14:41 37.205470 -121.928975 327 5763ft 184kts
08-Feb-19 14:42 37.251404 -121.959464 328 5498ft 195kts
08-Feb-19 14:43 37.299625 -121.991484 329 3918ft 200kts
08-Feb-19 14:44 37.340443 -122.025929 315 3288ft 155kts
08-Feb-19 14:45 37.370839 -122.057379 330 2628ft 117kts
08-Feb-19 14:45 37.396224 -122.060546 12 1886ft 110kts
08-Feb-19 14:47 37.421157 -122.030923 71 1549ft 121kts
08-Feb-19 14:48 37.414348 -121.986648 133 844ft 132kts
08-Feb-19 14:49 37.390087 -121.959938 141 562ft 120kts
08-Feb-19 14:49 37.369364 -121.937154 141 48ft 94kts
08-Feb-19 14:50 37.362213 -121.930760 224 49ft 0kts
08-Feb-19 14:52 37.362209 -121.930765 224 49ft 1kts
08-Feb-19 14:52 37.361168 -121.934129 261 50ft 15kts
08-Feb-19 14:53 37.361193 -121.934854 318 50ft 0kts

Navigation Log

Ident Type
Flight plan parsing failed, navigation log unavailable